Create Tblcommutelog Verified Points Advance Search
| # | Trip ID | Id Commuter | Trip Date | Trip Num | Current Lat | Current Lng | Delta Distance | Current Time | Activity | Activity Confidence | Current Speed | |
|---|---|---|---|---|---|---|---|---|---|---|---|---|
| 72861 | 250930_784208_16509837_0806 | 784208 | (not set) | (not set) | 38.757268422517 | -77.146826243883 | 1.4809 | 2025-09-30 08:32:00 | on_bicycle | 100 | 4.7475569304496 | |
| 72862 | 250930_777802_16486967_0828 | 777802 | (not set) | (not set) | 38.911557 | -77.4188703 | 0.6789 | 2025-09-30 08:32:07 | in_vehicle | 100 | 5.9187997889975 | |
| 72863 | 250930_784208_16509837_0806 | 784208 | (not set) | (not set) | 38.758482324649 | -77.147862158959 | 1.5816 | 2025-09-30 08:32:14 | on_bicycle | 100 | 5.5969315225263 | |
| 72864 | 250930_787812_16432732_0746 | 787812 | (not set) | (not set) | 38.897696384891 | -77.176631668606 | 12.488 | 2025-09-30 08:31:56 | in_vehicle | 100 | 8.3328117875312 | |
| 72865 | 250930_753546_16500693_0829 | 753546 | (not set) | (not set) | 38.790055094963 | -77.264734575599 | 0 | 2025-09-30 08:32:29 | in_vehicle | 100 | -0.44703925898772 | |
| 72866 | 250930_777802_16486967_0828 | 777802 | (not set) | (not set) | 38.9107419 | -77.4146367 | 0.9342 | 2025-09-30 08:32:35 | in_vehicle | 100 | 5.1498922635386 | |
| 72867 | 250930_669170_16500693_0642 | 669170 | (not set) | (not set) | 38.912001814838 | -76.999698235947 | 60.7118 | 2025-09-30 08:32:41 | in_vehicle | 100 | 0 | |
| 72868 | 250930_784208_16509837_0806 | 784208 | (not set) | (not set) | 38.761241069268 | -77.149893226533 | 1.8012 | 2025-09-30 08:32:49 | on_bicycle | 100 | 4.260284138153 | |
| 72869 | 250930_787847_16499346_0824 | 787847 | (not set) | (not set) | 38.920071473323 | -76.90766866965 | 2.7402 | 2025-09-30 08:32:53 | in_vehicle | 100 | 12.508158466477 | |
| 72870 | 250930_785785_6461772_0806 | 785785 | (not set) | (not set) | 38.889776805007 | -77.10581417279 | 8.1453 | 2025-09-30 08:32:58 | in_vehicle | 100 | 9.1508936314787 | |
| 72871 | 250930_758203_16464305_0757 | 758203 | (not set) | (not set) | 38.886285934158 | -77.02220781435 | 5.4779 | 2025-09-30 08:33:05 | on_foot | 100 | 0.5900918218638 | |
| 72872 | 250930_785178_16514021_0804 | 785178 | (not set) | (not set) | 38.973697811283 | -76.930080803957 | 5.9691 | 2025-09-30 08:33:08 | in_vehicle | 100 | 9.213479127737 | |
| 72873 | 250930_782549_16460442_0657 | 782549 | (not set) | (not set) | 38.899031987632 | -77.006598851834 | 42.7841 | 2025-09-30 08:27:49 | unknown | 100 | -0.44703925898772 | |
| 72874 | 250930_770658_6426227_0809 | 770658 | (not set) | (not set) | 38.887566741393 | -77.057126782149 | 6.271 | 2025-09-30 08:27:54 | in_vehicle | 100 | -0.44703925898772 | |
| 72875 | 250930_780856_6461772_0801 | 780856 | (not set) | (not set) | 38.903823435463 | -77.06500250846 | 5.8371 | 2025-09-30 08:28:00 | on_bicycle | 100 | 3.567373286722 | |
| 72876 | 250930_769852_16513578_0809 | 769852 | (not set) | (not set) | 38.910328302644 | -77.044275231293 | 9.276 | 2025-09-30 08:28:06 | in_vehicle | 100 | -0.44703925898772 | |
| 72877 | 250930_782405_16511739_0700 | 782405 | (not set) | (not set) | 39.221392815883 | -76.713444837615 | 34.2101 | 2025-09-30 08:28:12 | in_vehicle | 100 | 6.9961644031579 | |
| 72878 | 250930_715163_16479164_0826 | 715163 | (not set) | (not set) | 38.8795585 | -77.0368364 | 0 | 2025-09-30 08:28:09 | walking | 100 | -0.44703925898772 | |
| 72879 | 250930_780856_6461772_0801 | 780856 | (not set) | (not set) | 38.902657853067 | -77.063806247896 | 5.9402 | 2025-09-30 08:28:33 | on_bicycle | 100 | 2.6420020206175 | |
| 72880 | 250930_780856_6461772_0801 | 780856 | (not set) | (not set) | 38.902657853067 | -77.063806247896 | 5.9402 | 2025-09-30 08:28:33 | on_bicycle | 100 | 2.6420020206175 |